Time;durP1;ratioP1;P1;durP2;ratioP2;P2;SDS_P1;SDS_P2;PMS_P1;PMS_P2;Temp;Humidity;BMP_temperature;BMP_pressure;BME280_temperature;BME280_humidity;BME280_pressure;Samples;Min_cycle;Max_cycle;Signal;HPM_P1;HPM_P2
2020/12/08 00:00:45;;;;;;;1999.90;999.90;;;;;;;6.94;69.14;100144.06;15867222;28;20192;-57
2020/12/08 00:08:19;;;;;;;1999.90;999.90;;;;;;;6.97;69.24;100125.94;15858395;28;20077;-59
2020/12/08 00:15:51;;;;;;;1999.90;999.90;;;;;;;6.92;69.60;100132.47;15823311;28;20034;-61
2020/12/08 00:23:25;;;;;;;1999.90;999.90;;;;;;;6.97;69.58;100139.81;15848401;28;20052;-61
2020/12/08 00:30:57;;;;;;;1999.90;999.90;;;;;;;6.77;69.77;100121.81;15847947;28;20039;-59
2020/12/08 00:38:31;;;;;;;1999.90;999.90;;;;;;;6.83;69.74;100111.41;15866069;28;20489;-59
2020/12/08 00:46:03;;;;;;;1999.90;999.90;;;;;;;6.67;69.26;100091.66;15826175;28;20105;-59
2020/12/08 00:53:37;;;;;;;1999.90;999.90;;;;;;;6.51;70.61;100109.84;15832636;28;20130;-59
2020/12/08 01:01:12;;;;;;;1999.90;999.90;;;;;;;6.63;69.89;100110.03;15837788;28;20051;-59
2020/12/08 01:08:45;;;;;;;1999.90;999.90;;;;;;;6.60;70.46;100108.75;15842700;28;20052;-59
2020/12/08 01:16:24;;;;;;;1999.90;999.90;;;;;;;6.62;70.80;100114.78;15875899;28;20055;-59
2020/12/08 01:23:59;;;;;;;1999.90;999.90;;;;;;;6.83;70.02;100128.88;15840214;28;20047;-58
2020/12/08 01:31:31;;;;;;;;;;;;;;;6.96;70.08;100121.56;15858757;28;20192;-60
2020/12/08 01:39:06;;;;;;;1999.90;999.90;;;;;;;6.67;70.49;100099.97;15856475;28;19923;-57
2020/12/08 01:46:39;;;;;;;1999.90;999.90;;;;;;;6.75;70.50;100101.94;15855999;28;20514;-56
2020/12/08 01:54:13;;;;;;;1999.90;999.90;;;;;;;6.23;72.96;100100.91;15855920;28;20043;-57
2020/12/08 02:01:51;;;;;;;1999.90;999.90;;;;;;;6.00;74.67;100087.13;15855436;28;20084;-55
2020/12/08 02:09:25;;;;;;;1999.90;999.90;;;;;;;6.31;74.60;100086.28;15854300;28;20282;-61
2020/12/08 02:16:58;;;;;;;1999.90;999.90;;;;;;;6.23;75.89;100079.56;15855015;28;20046;-57
2020/12/08 02:24:31;;;;;;;1999.90;999.90;;;;;;;6.24;76.79;100077.63;15854020;28;20043;-61
2020/12/08 02:32:07;;;;;;;1999.90;999.90;;;;;;;6.36;77.81;100066.78;15854343;28;20035;-60
2020/12/08 02:39:40;;;;;;;1999.90;999.90;;;;;;;6.49;78.46;100076.09;15852783;28;20040;-59
2020/12/08 02:47:13;;;;;;;1999.90;999.90;;;;;;;6.80;77.13;100081.56;15835208;28;20048;-60
2020/12/08 02:54:48;;;;;;;1999.90;999.90;;;;;;;6.89;77.33;100091.53;15852471;28;20100;-55
2020/12/08 03:02:20;;;;;;;1999.90;999.90;;;;;;;6.98;77.22;100105.38;15834862;28;20055;-60
2020/12/08 03:09:58;;;;;;;1999.90;999.90;;;;;;;6.94;77.13;100104.41;15851803;28;20524;-57
2020/12/08 03:17:31;;;;;;;1999.90;999.90;;;;;;;7.11;76.56;100098.91;15850182;28;20039;-57
2020/12/08 03:25:06;;;;;;;1999.90;999.90;;;;;;;7.00;77.19;100100.38;15848751;28;20477;-57
2020/12/08 03:32:39;;;;;;;1999.90;999.90;;;;;;;6.87;77.75;100090.19;15850247;28;20126;-59
2020/12/08 03:40:19;;;;;;;1999.90;999.90;;;;;;;6.79;77.84;100088.25;15808283;28;20112;-58
2020/12/08 03:47:52;;;;;;;1999.90;999.90;;;;;;;6.92;77.31;100092.84;15849968;28;20496;-59
2020/12/08 03:55:30;;;;;;;1999.90;999.90;;;;;;;7.00;77.12;100086.50;15832829;28;20075;-61
2020/12/08 04:03:04;;;;;;;1999.90;999.90;;;;;;;6.70;78.48;100070.78;15806943;28;20036;-58
2020/12/08 04:10:43;;;;;;;1999.90;999.90;;;;;;;6.83;78.08;100078.94;15849254;28;20055;-57
2020/12/08 04:18:15;;;;;;;1999.90;999.90;;;;;;;6.80;77.94;100070.47;15848667;28;20408;-57
2020/12/08 04:25:51;;;;;;;1999.90;999.90;;;;;;;6.94;77.18;100080.28;15848758;28;20092;-60
2020/12/08 04:33:27;;;;;;;1999.90;999.90;;;;;;;6.68;77.97;100084.97;15853328;28;20135;-57
2020/12/08 04:41:01;;;;;;;1999.90;999.90;;;;;;;6.91;77.84;100094.78;15878066;28;20097;-58
2020/12/08 04:48:36;;;;;;;1999.90;999.90;;;;;;;6.87;78.04;100085.47;15842927;28;20053;-60
2020/12/08 04:56:09;;;;;;;1999.90;999.90;;;;;;;7.04;76.86;100087.47;15858986;28;20047;-56
2020/12/08 05:03:42;;;;;;;;;;;;;;;7.09;77.14;100090.09;15877627;28;20462;-57
2020/12/08 05:11:15;;;;;;;1999.90;999.90;;;;;;;6.93;76.87;100098.06;15859545;28;20381;-58
2020/12/08 05:18:48;;;;;;;;;;;;;;;7.09;76.73;100111.47;15876740;28;20039;-60
2020/12/08 05:26:22;;;;;;;1999.90;999.90;;;;;;;7.04;76.67;100115.19;15875597;28;20245;-61
2020/12/08 05:33:59;;;;;;;1999.90;999.90;;;;;;;7.09;76.36;100117.84;15857065;28;20034;-54
2020/12/08 05:41:32;;;;;;;1999.90;999.90;;;;;;;7.19;76.08;100116.69;15875549;28;20126;-57
2020/12/08 05:49:05;;;;;;;1999.90;999.90;;;;;;;7.11;76.07;100120.28;15873265;28;20051;-60
2020/12/08 05:56:39;;;;;;;1999.90;999.90;;;;;;;6.94;76.50;100126.59;15855496;28;20088;-58
2020/12/08 06:04:13;;;;;;;1999.90;999.90;;;;;;;6.94;76.72;100132.97;15872716;28;20058;-59
2020/12/08 06:11:47;;;;;;;1999.90;999.90;;;;;;;6.96;76.24;100132.66;15871253;28;20040;-60
2020/12/08 06:19:20;;;;;;;1999.90;999.90;;;;;;;6.95;76.45;100137.38;15854014;28;20458;-59
2020/12/08 06:26:53;;;;;;;1999.90;999.90;;;;;;;6.88;76.09;100142.59;15839599;28;20044;-62
2020/12/08 06:34:29;;;;;;;;;;;;;;;6.87;76.62;100140.94;15853152;28;20497;-63
2020/12/08 06:42:12;;;;;;;1999.90;999.90;;;;;;;6.83;76.32;100151.06;15850129;28;19919;-63
2020/12/08 06:49:45;;;;;;;1999.90;999.90;;;;;;;6.81;76.11;100150.56;15870976;28;20043;-62
2020/12/08 06:57:23;;;;;;;1999.90;999.90;;;;;;;6.85;76.34;100165.41;15870987;28;20032;-63
2020/12/08 07:04:56;;;;;;;1999.90;999.90;;;;;;;6.88;75.62;100175.88;15852547;28;20123;-62
2020/12/08 07:12:40;;;;;;;1999.90;999.90;;;;;;;6.80;76.30;100176.66;15870815;28;20039;-60
2020/12/08 07:20:12;;;;;;;1999.90;999.90;;;;;;;6.87;75.70;100187.28;15869647;28;20053;-62
2020/12/08 07:27:49;;;;;;;1999.90;999.90;;;;;;;6.92;75.58;100185.19;15868650;28;20043;-61
2020/12/08 07:35:24;;;;;;;1999.90;999.90;;;;;;;7.01;74.83;100193.53;15868710;28;20079;-62
2020/12/08 07:42:58;;;;;;;1999.90;999.90;;;;;;;6.95;75.37;100206.72;15868082;28;20065;-62
2020/12/08 07:50:33;;;;;;;1999.90;999.90;;;;;;;7.28;74.46;100209.09;15849950;28;20122;-62
2020/12/08 07:58:07;;;;;;;1999.90;999.90;;;;;;;7.10;74.49;100208.25;15867332;28;20051;-61
2020/12/08 08:05:39;;;;;;;1999.90;999.90;;;;;;;7.24;73.16;100227.53;15848834;28;20451;-63
2020/12/08 08:13:13;;;;;;;1999.90;999.90;;;;;;;7.24;72.89;100233.91;15845017;28;20420;-63
2020/12/08 08:20:45;;;;;;;1999.90;999.90;;;;;;;7.21;72.27;100226.22;15879504;28;20054;-63
2020/12/08 08:28:19;;;;;;;1999.90;999.90;;;;;;;6.99;73.71;100231.06;15860493;28;20044;-63
2020/12/08 08:35:52;;;;;;;1999.90;999.90;;;;;;;7.11;72.57;100228.50;15878697;28;20074;-63
2020/12/08 08:43:25;;;;;;;1999.90;999.90;;;;;;;7.04;72.15;100234.50;15859972;28;20408;-63
2020/12/08 08:50:58;;;;;;;;;;;;;;;7.03;72.50;100229.28;15860481;28;20048;-63
2020/12/08 08:58:31;;;;;;;1999.90;999.90;;;;;;;7.47;70.83;100234.59;15859185;28;19924;-62
2020/12/08 09:06:04;;;;;;;1999.90;999.90;;;;;;;8.00;68.69;100235.47;15877196;28;20039;-62
2020/12/08 09:13:37;;;;;;;1999.90;999.90;;;;;;;8.46;66.73;100239.53;15860088;28;20043;-62
2020/12/08 09:21:10;;;;;;;1999.90;999.90;;;;;;;8.72;65.20;100236.69;15878454;28;20048;-61
2020/12/08 09:28:45;;;;;;;1999.90;999.90;;;;;;;9.88;62.39;100241.78;15865607;28;20047;-62
2020/12/08 09:36:17;;;;;;;1999.90;999.90;;;;;;;9.63;62.11;100243.59;15858100;28;20039;-63
2020/12/08 09:43:51;;;;;;;1999.90;999.90;;;;;;;10.43;60.31;100237.88;15840456;28;20071;-63
2020/12/08 09:51:25;;;;;;;1999.90;999.90;;;;;;;10.58;59.99;100245.59;15874406;28;20040;-62
2020/12/08 09:58:58;;;;;;;1999.90;999.90;;;;;;;10.50;58.86;100255.66;15874430;28;20131;-63
2020/12/08 10:06:31;;;;;;;;;;;;;;;10.76;59.09;100254.59;15855816;28;20036;-61
2020/12/08 10:14:04;;;;;;;1999.90;999.90;;;;;;;10.90;57.78;100255.06;15873352;28;19919;-63
2020/12/08 10:21:39;;;;;;;1999.90;999.90;;;;;;;10.85;58.33;100247.75;15873599;28;20055;-62
2020/12/08 10:29:13;;;;;;;1999.90;999.90;;;;;;;11.25;57.54;100244.28;15853224;28;20047;-62
2020/12/08 10:36:47;;;;;;;1999.90;999.90;;;;;;;10.75;58.38;100248.19;15871483;28;20066;-61
2020/12/08 10:44:20;;;;;;;1999.90;999.90;;;;;;;11.45;56.22;100254.53;15871114;28;20126;-61
2020/12/08 10:51:53;;;;;;;1999.90;999.90;;;;;;;11.54;56.16;100249.63;15870576;28;20505;-62
2020/12/08 10:59:27;;;;;;;1999.90;999.90;;;;;;;12.39;53.71;100245.81;15869197;28;20055;-60
2020/12/08 11:07:00;;;;;;;1999.90;999.90;;;;;;;12.34;53.75;100243.28;15869672;28;20051;-62
2020/12/08 11:14:33;;;;;;;1999.90;999.90;;;;;;;13.10;51.28;100246.09;15851736;28;20036;-58
2020/12/08 11:22:10;;;;;;;1999.90;999.90;;;;;;;13.86;49.73;100248.38;15870220;28;20040;-61
2020/12/08 11:29:43;;;;;;;;;;;;;;;13.70;49.08;100239.19;15840604;28;20052;-62
2020/12/08 11:37:17;;;;;;;1999.90;999.90;;;;;;;13.55;49.23;100260.50;15862985;28;20338;-62
2020/12/08 11:44:50;;;;;;;1999.90;999.90;;;;;;;13.90;49.26;100256.06;15867941;28;20044;-60
2020/12/08 11:52:23;;;;;;;1999.90;999.90;;;;;;;14.78;45.96;100270.34;15849284;28;20051;-62
2020/12/08 11:59:56;;;;;;;1999.90;999.90;;;;;;;15.21;45.55;100277.53;15866759;28;20043;-62
2020/12/08 12:07:29;;;;;;;1999.90;999.90;;;;;;;14.82;45.73;100265.59;15866845;28;20046;-62
2020/12/08 12:15:03;;;;;;;1999.90;999.90;;;;;;;15.66;44.41;100265.47;15832130;28;20048;-62
2020/12/08 12:22:36;;;;;;;1999.90;999.90;;;;;;;18.13;39.15;100264.03;15866571;28;20046;-63
2020/12/08 12:30:09;;;;;;;1999.90;999.90;;;;;;;17.86;39.15;100275.59;15848105;28;20047;-62
2020/12/08 12:37:42;;;;;;;1999.90;999.90;;;;;;;16.24;42.71;100279.16;15866422;28;20497;-62
2020/12/08 12:45:15;;;;;;;1999.90;999.90;;;;;;;16.80;41.63;100263.38;15848243;28;20408;-63
2020/12/08 12:52:47;;;;;;;1999.90;999.90;;;;;;;13.67;47.78;100258.75;15832208;28;20044;-62
2020/12/08 13:00:21;;;;;;;1999.90;999.90;;;;;;;12.05;52.34;100264.00;15877823;28;20046;-62
2020/12/08 13:07:53;;;;;;;1999.90;999.90;;;;;;;10.95;55.76;100268.84;15877146;28;20096;-62
2020/12/08 13:15:27;;;;;;;1999.90;999.90;;;;;;;11.40;54.23;100274.31;15876908;28;20073;-62
2020/12/08 13:23:00;;;;;;;1999.90;999.90;;;;;;;11.39;54.11;100271.88;15876212;28;20035;-62
2020/12/08 13:30:34;;;;;;;1999.90;999.90;;;;;;;10.59;56.88;100281.50;15875522;28;20040;-62
2020/12/08 13:38:08;;;;;;;1999.90;999.90;;;;;;;9.45;60.23;100279.09;15857279;28;20105;-62
2020/12/08 13:45:41;;;;;;;1999.90;999.90;;;;;;;9.34;60.88;100287.00;15874872;28;20036;-62
2020/12/08 13:53:14;;;;;;;1999.90;999.90;;;;;;;8.86;61.92;100290.16;15873632;28;20664;-61
2020/12/08 14:00:48;;;;;;;1999.90;999.90;;;;;;;8.67;63.02;100294.13;15873780;28;20073;-62
2020/12/08 14:08:22;;;;;;;1999.90;999.90;;;;;;;8.53;63.64;100279.56;15872464;28;20449;-62
2020/12/08 14:15:55;;;;;;;1999.90;999.90;;;;;;;7.91;65.45;100279.91;15854411;28;20040;-62
2020/12/08 14:23:28;;;;;;;1999.90;999.90;;;;;;;7.70;66.18;100292.78;15871714;28;20447;-61
2020/12/08 14:31:05;;;;;;;1999.90;999.90;;;;;;;7.34;67.21;100302.19;15870993;28;20530;-63
2020/12/08 14:38:38;;;;;;;1999.90;999.90;;;;;;;6.98;68.02;100316.22;15871099;28;20542;-61
2020/12/08 14:46:13;;;;;;;1999.90;999.90;;;;;;;6.62;69.33;100328.25;15870903;28;20082;-61
2020/12/08 14:53:46;;;;;;;1999.90;999.90;;;;;;;6.35;70.30;100315.31;15870280;28;20047;-61
2020/12/08 15:01:20;;;;;;;1999.90;999.90;;;;;;;6.18;70.31;100333.78;15851995;28;20047;-63
2020/12/08 15:08:53;;;;;;;1999.90;999.90;;;;;;;5.97;71.27;100344.50;15851047;28;20035;-62
2020/12/08 15:16:26;;;;;;;1999.90;999.90;;;;;;;5.89;70.85;100345.22;15868647;28;20043;-62
2020/12/08 15:23:59;;;;;;;1999.90;999.90;;;;;;;5.71;71.75;100366.34;15869681;28;20555;-62
2020/12/08 15:31:33;;;;;;;1999.90;999.90;;;;;;;5.55;72.03;100357.56;15868831;28;20398;-62
2020/12/08 15:39:08;;;;;;;1999.90;999.90;;;;;;;5.67;71.19;100366.16;15851956;28;20047;-62
2020/12/08 15:46:42;;;;;;;1999.90;999.90;;;;;;;5.31;72.86;100368.81;15869433;28;20100;-61
2020/12/08 15:54:15;;;;;;;1999.90;999.90;;;;;;;5.30;72.17;100364.41;15869307;28;20040;-62
2020/12/08 16:01:48;;;;;;;1999.90;999.90;;;;;;;4.81;74.50;100360.34;15852211;28;20048;-62
2020/12/08 16:09:21;;;;;;;1999.90;999.90;;;;;;;4.78;74.52;100371.16;15851353;28;20044;-61
2020/12/08 16:16:55;;;;;;;1999.90;999.90;;;;;;;4.70;74.33;100374.66;15869134;28;20048;-62
2020/12/08 16:24:28;;;;;;;1999.90;999.90;;;;;;;4.41;75.37;100389.47;15850048;28;20036;-62
2020/12/08 16:32:03;;;;;;;1999.90;999.90;;;;;;;4.24;76.13;100391.94;15836085;28;20086;-61
2020/12/08 16:39:36;;;;;;;1999.90;999.90;;;;;;;4.44;75.75;100388.88;15862350;28;20039;-63
2020/12/08 16:47:10;;;;;;;1999.90;999.90;;;;;;;4.26;76.22;100401.56;15879309;28;20046;-63
2020/12/08 16:54:43;;;;;;;1999.90;999.90;;;;;;;4.29;76.11;100406.50;15880022;28;20040;-63
2020/12/08 17:02:17;;;;;;;1999.90;999.90;;;;;;;4.24;77.08;100409.31;15878489;28;20608;-64
2020/12/08 17:09:50;;;;;;;1999.90;999.90;;;;;;;4.42;76.02;100431.72;15877113;28;20059;-64
2020/12/08 17:17:24;;;;;;;1999.90;999.90;;;;;;;4.44;76.64;100444.13;15866720;28;20035;-63
2020/12/08 17:24:57;;;;;;;1999.90;999.90;;;;;;;4.45;75.91;100450.47;15873783;28;20488;-63
2020/12/08 17:32:30;;;;;;;1999.90;999.90;;;;;;;4.75;74.92;100450.00;15875319;28;20075;-63
2020/12/08 17:40:04;;;;;;;1999.90;999.90;;;;;;;4.41;75.31;100454.94;15856624;28;20130;-63
2020/12/08 17:47:39;;;;;;;1999.90;999.90;;;;;;;4.26;76.47;100454.03;15856955;28;20146;-63
2020/12/08 17:55:12;;;;;;;1999.90;999.90;;;;;;;4.35;75.70;100468.81;15845133;28;20427;-64
2020/12/08 18:02:46;;;;;;;1999.90;999.90;;;;;;;4.10;75.85;100471.13;15873995;28;20408;-63
2020/12/08 18:10:19;;;;;;;1999.90;999.90;;;;;;;3.90;76.37;100478.53;15858276;28;20055;-63
2020/12/08 18:17:53;;;;;;;1999.90;999.90;;;;;;;3.99;76.08;100485.06;15875634;28;20043;-62
2020/12/08 18:25:26;;;;;;;1999.90;999.90;;;;;;;3.87;75.95;100484.66;15874018;28;20123;-64
2020/12/08 18:33:00;;;;;;;1999.90;999.90;;;;;;;3.79;76.58;100484.47;15849117;28;20051;-63
2020/12/08 18:40:32;;;;;;;1999.90;999.90;;;;;;;3.53;76.88;100475.63;15839976;28;20101;-62
2020/12/08 18:48:06;;;;;;;1999.90;999.90;;;;;;;3.66;76.85;100467.50;15857151;28;20229;-59
2020/12/08 18:55:39;;;;;;;1999.90;999.90;;;;;;;3.41;77.71;100468.56;15837997;28;20075;-60
2020/12/08 19:03:13;;;;;;;1999.90;999.90;;;;;;;3.52;77.01;100477.56;15857112;28;20051;-63
2020/12/08 19:10:46;;;;;;;1999.90;999.90;;;;;;;3.68;77.09;100492.03;15836950;27;20054;-62
2020/12/08 19:18:19;;;;;;;1999.90;999.90;;;;;;;3.45;77.12;100488.16;15849158;28;20048;-59
2020/12/08 19:25:52;;;;;;;1999.90;999.90;;;;;;;3.68;76.62;100494.81;15850600;28;20039;-63
2020/12/08 19:33:26;;;;;;;1999.90;999.90;;;;;;;3.34;77.27;100498.47;15839668;27;20047;-61
2020/12/08 19:41:00;;;;;;;1999.90;999.90;;;;;;;3.34;77.74;100495.69;15819055;28;20509;-60
2020/12/08 19:48:34;;;;;;;1999.90;999.90;;;;;;;3.37;77.59;100502.56;15841163;28;20042;-62
2020/12/08 19:56:07;;;;;;;1999.90;999.90;;;;;;;3.29;78.01;100500.44;15853703;28;20039;-59
2020/12/08 20:03:41;;;;;;;1999.90;999.90;;;;;;;3.36;77.87;100501.75;15838146;27;20724;-60
2020/12/08 20:11:14;;;;;;;1999.90;999.90;;;;;;;3.10;78.57;100505.81;15864613;28;20031;-59
2020/12/08 20:18:49;;;;;;;1999.90;999.90;;;;;;;3.25;78.29;100505.72;15822681;28;20047;-61
2020/12/08 20:26:22;;;;;;;1999.90;999.90;;;;;;;3.07;78.85;100503.66;15843858;28;20567;-60
2020/12/08 20:33:56;;;;;;;1999.90;999.90;;;;;;;3.26;77.97;100501.84;15840334;28;20055;-62
2020/12/08 20:41:29;;;;;;;1999.90;999.90;;;;;;;3.43;77.30;100510.47;15819600;27;20040;-62
2020/12/08 20:49:02;;;;;;;1999.90;999.90;;;;;;;3.46;77.65;100509.09;15880249;27;20039;-63
2020/12/08 20:56:35;;;;;;;1999.90;999.90;;;;;;;3.45;77.38;100519.31;15858071;27;20040;-62
2020/12/08 21:04:08;;;;;;;1999.90;999.90;;;;;;;3.30;78.02;100529.66;15895703;27;20043;-63
2020/12/08 21:11:41;;;;;;;1999.90;999.90;;;;;;;3.45;77.46;100522.06;15857387;28;20035;-63
2020/12/08 21:19:15;;;;;;;1999.90;999.90;;;;;;;3.55;77.39;100512.88;15859050;28;20078;-60
2020/12/08 21:26:48;;;;;;;1999.90;999.90;;;;;;;3.37;78.30;100514.41;15875989;28;20048;-60
2020/12/08 21:34:22;;;;;;;1999.90;999.90;;;;;;;3.53;77.63;100504.03;15840147;28;20055;-60
2020/12/08 21:41:54;;;;;;;1999.90;999.90;;;;;;;3.74;76.55;100497.19;15857926;28;20046;-64
2020/12/08 21:49:28;;;;;;;1999.90;999.90;;;;;;;3.79;76.55;100503.78;15856787;28;20405;-61
2020/12/08 21:57:00;;;;;;;1999.90;999.90;;;;;;;3.85;76.69;100524.69;15853876;27;20043;-63
2020/12/08 22:04:34;;;;;;;1999.90;999.90;;;;;;;3.87;76.20;100515.03;15855215;28;20489;-63
2020/12/08 22:12:08;;;;;;;1999.90;999.90;;;;;;;3.93;76.04;100508.31;15857265;28;20051;-61
2020/12/08 22:19:42;;;;;;;1999.90;999.90;;;;;;;3.98;75.95;100522.06;15856624;28;20470;-63
2020/12/08 22:27:14;;;;;;;1999.90;999.90;;;;;;;3.68;76.88;100498.38;15854979;28;20078;-62
2020/12/08 22:34:48;;;;;;;1999.90;999.90;;;;;;;3.87;76.38;100501.22;15856634;28;20043;-62
2020/12/08 22:42:20;;;;;;;1999.90;999.90;;;;;;;3.98;75.97;100499.16;15854517;28;20506;-62
2020/12/08 22:49:59;;;;;;;1999.90;999.90;;;;;;;3.79;76.32;100488.06;15870385;28;20047;-62
2020/12/08 22:57:32;;;;;;;1999.90;999.90;;;;;;;3.54;77.16;100499.34;15870218;28;20669;-63
2020/12/08 23:05:06;;;;;;;1999.90;999.90;;;;;;;3.60;77.27;100503.72;15870308;28;20122;-62
2020/12/08 23:12:38;;;;;;;;;;;;;;;3.75;76.51;100495.25;15871219;28;20050;-63
2020/12/08 23:20:14;;;;;;;1999.90;999.90;;;;;;;3.63;76.92;100472.75;15851352;28;19920;-62
2020/12/08 23:27:47;;;;;;;1999.90;999.90;;;;;;;3.60;77.30;100470.59;15868924;28;20044;-63
2020/12/08 23:35:21;;;;;;;1999.90;999.90;;;;;;;3.89;75.58;100476.91;15868560;28;20051;-61
2020/12/08 23:42:53;;;;;;;1999.90;999.90;;;;;;;3.63;76.98;100486.56;15825799;28;20072;-63
2020/12/08 23:50:27;;;;;;;1999.90;999.90;;;;;;;3.82;75.84;100484.69;15849733;28;20173;-61
2020/12/08 23:58:02;;;;;;;1999.90;999.90;;;;;;;3.72;76.14;100493.91;15867979;28;20051;-62
